createdAt,value
2022-12-26T00:04:50.707Z,1
2022-12-26T00:14:41.858Z,1
2022-12-26T00:24:41.738Z,1
2022-12-26T00:34:41.729Z,1
2022-12-26T00:44:41.553Z,1
2022-12-26T00:54:41.523Z,1
2022-12-26T01:04:41.454Z,1
2022-12-26T01:14:41.392Z,1
2022-12-26T01:24:41.261Z,1
2022-12-26T01:34:41.257Z,1
2022-12-26T01:44:41.161Z,1
2022-12-26T01:54:43.087Z,1
2022-12-26T02:04:41.009Z,1
2022-12-26T02:14:40.933Z,1
2022-12-26T02:24:40.893Z,1
2022-12-26T02:34:40.824Z,1
2022-12-26T02:44:40.773Z,1
2022-12-26T02:54:40.672Z,1
2022-12-26T03:04:40.603Z,1
2022-12-26T03:14:40.528Z,1
2022-12-26T03:24:40.454Z,1
2022-12-26T03:34:40.487Z,1
2022-12-26T03:44:40.280Z,1
2022-12-26T03:54:40.207Z,1
2022-12-26T04:04:40.132Z,1
2022-12-26T04:14:40.098Z,14
2022-12-26T04:24:39.995Z,17
2022-12-26T04:34:39.943Z,14
2022-12-26T04:44:39.845Z,14
2022-12-26T04:54:39.824Z,30
2022-12-26T05:04:39.784Z,29
2022-12-26T05:14:39.665Z,31
2022-12-26T05:24:39.547Z,33
2022-12-26T05:34:39.475Z,45
2022-12-26T05:44:39.408Z,35
2022-12-26T05:54:39.373Z,28
2022-12-26T06:04:39.253Z,19
2022-12-26T06:14:39.287Z,29
2022-12-26T06:24:39.164Z,28
2022-12-26T06:34:39.061Z,18
2022-12-26T06:44:38.974Z,20
2022-12-26T06:54:38.882Z,19
2022-12-26T07:04:38.830Z,26
2022-12-26T07:14:38.736Z,31
2022-12-26T07:24:38.672Z,26
2022-12-26T07:34:38.604Z,20
2022-12-26T07:44:38.573Z,21
2022-12-26T07:54:38.442Z,22
2022-12-26T08:04:38.371Z,22
2022-12-26T08:14:38.325Z,42
2022-12-26T08:24:38.220Z,51
2022-12-26T08:34:38.144Z,48
2022-12-26T08:44:38.063Z,70
2022-12-26T08:54:38.031Z,71
2022-12-26T09:04:37.937Z,87
2022-12-26T09:14:37.869Z,89
2022-12-26T09:24:37.903Z,86
2022-12-26T09:34:37.798Z,93
2022-12-26T09:44:37.693Z,95
2022-12-26T09:54:37.599Z,99
2022-12-26T10:04:37.571Z,99
2022-12-26T10:14:37.468Z,99
2022-12-26T10:24:37.392Z,99
2022-12-26T10:34:37.308Z,99
2022-12-26T10:44:37.340Z,99
2022-12-26T10:54:37.279Z,99
2022-12-26T11:05:10.442Z,99
2022-12-26T11:14:36.994Z,99
2022-12-26T11:24:36.950Z,94
2022-12-26T11:34:36.860Z,99
2022-12-26T11:44:36.887Z,99
2022-12-26T11:54:36.745Z,99
2022-12-26T12:04:37.088Z,99
2022-12-26T12:14:36.771Z,99
2022-12-26T12:24:36.491Z,99
2022-12-26T12:34:36.453Z,99
2022-12-26T12:44:36.446Z,99
2022-12-26T12:54:36.299Z,99
2022-12-26T13:04:36.199Z,99
2022-12-26T13:14:36.168Z,99
2022-12-26T13:24:36.078Z,99
2022-12-26T13:34:36.032Z,99
2022-12-26T13:44:35.952Z,99
2022-12-26T13:54:35.872Z,99
2022-12-26T14:04:35.833Z,99
2022-12-26T14:14:35.817Z,99
2022-12-26T14:24:35.662Z,99
2022-12-26T14:34:35.661Z,99
2022-12-26T14:44:35.538Z,99
2022-12-26T14:54:35.466Z,99
2022-12-26T15:04:35.378Z,99
2022-12-26T15:14:35.281Z,99
2022-12-26T15:25:17.085Z,1
2022-12-26T15:34:35.135Z,1
2022-12-26T15:44:35.086Z,1
2022-12-26T15:54:35.021Z,1
2022-12-26T16:04:34.910Z,1
2022-12-26T16:14:34.851Z,1
2022-12-26T16:24:34.771Z,1
2022-12-26T16:34:34.698Z,1
2022-12-26T16:44:34.751Z,1
2022-12-26T16:54:34.551Z,1
2022-12-26T17:04:34.488Z,1
2022-12-26T17:14:34.472Z,1
2022-12-26T17:24:34.363Z,1
2022-12-26T17:34:34.312Z,1
2022-12-26T17:44:34.231Z,1
2022-12-26T17:54:34.255Z,1
2022-12-26T18:04:34.059Z,1
2022-12-26T18:14:33.976Z,1
2022-12-26T18:24:33.909Z,1
2022-12-26T18:34:33.938Z,1
2022-12-26T18:44:33.795Z,1
2022-12-26T18:54:33.729Z,1
2022-12-26T19:04:33.635Z,1
2022-12-26T19:14:33.552Z,1
2022-12-26T19:24:33.503Z,1
2022-12-26T19:34:33.427Z,1
2022-12-26T19:44:33.354Z,1
2022-12-26T19:54:33.332Z,1
2022-12-26T20:04:33.316Z,1
2022-12-26T20:14:33.149Z,1
2022-12-26T20:24:33.092Z,1
2022-12-26T20:34:32.980Z,1
2022-12-26T20:44:32.902Z,99
2022-12-26T20:54:32.867Z,97
2022-12-26T21:04:32.782Z,68
2022-12-26T21:14:32.806Z,48
2022-12-26T21:24:32.647Z,26
2022-12-26T21:34:32.536Z,20
2022-12-26T21:44:32.504Z,13
2022-12-26T21:54:32.430Z,1
2022-12-26T22:04:32.355Z,1
2022-12-26T22:14:32.274Z,1
2022-12-26T22:24:32.202Z,1
2022-12-26T22:34:32.252Z,1
2022-12-26T22:44:32.057Z,1
2022-12-26T22:54:31.959Z,1
2022-12-26T23:04:31.896Z,1
2022-12-26T23:14:31.815Z,1
2022-12-26T23:24:31.754Z,1
2022-12-26T23:34:31.682Z,1
2022-12-26T23:44:31.613Z,1
2022-12-26T23:54:31.549Z,1
